SEH2FI LGAV-LIRF
Flight info
| Callsign | SEH2FI |
|---|---|
| Flight time | N/A |
| Altitude | 38000 |
| Route | KOR UL53 IXONI DCT OLGAT DCT TOPNO DCT DOGUS DCT EKTOL DCT AMSOR DCT IPKAM DCT TEA DCT SIPRO DCT LAT |
| Aircraft | A20N/M-SDE2E3FGHIRWXY/LB1 |
Departure
| Time | N/A |
|---|---|
| Airport | Athens Eleftherios Venizelos International Airport (LGAV) |
Arrival
| Time | 2026-05-01 08:04 |
|---|---|
| Airport | Rome–Fiumicino Leonardo da Vinci International Airport (LIRF) |
| Time | Latitude | Longitude | Altitude | Speed | Heading |
|---|---|---|---|---|---|
| 2026-05-01 07:23 | 40.80941 | 16.71956 | 38179 ft | 403 kts | 288° |
| 2026-05-01 07:24 | 40.83429 | 16.61377 | 38233 ft | 403 kts | 288° |
| 2026-05-01 07:24 | 40.85092 | 16.54280 | 38238 ft | 404 kts | 288° |
| 2026-05-01 07:25 | 40.86750 | 16.47180 | 38236 ft | 404 kts | 288° |
| 2026-05-01 07:25 | 40.88396 | 16.40112 | 38234 ft | 404 kts | 288° |
| 2026-05-01 07:26 | 40.90047 | 16.32996 | 38233 ft | 404 kts | 288° |
| 2026-05-01 07:26 | 40.91694 | 16.25877 | 38218 ft | 405 kts | 288° |
| 2026-05-01 07:27 | 40.93330 | 16.18790 | 38226 ft | 405 kts | 288° |
| 2026-05-01 07:27 | 40.94965 | 16.11635 | 38212 ft | 406 kts | 286° |
| 2026-05-01 07:28 | 40.96241 | 16.04385 | 38211 ft | 407 kts | 284° |
| 2026-05-01 07:28 | 40.97493 | 15.97067 | 38219 ft | 407 kts | 284° |
| 2026-05-01 07:29 | 40.98741 | 15.89744 | 38230 ft | 408 kts | 284° |
| 2026-05-01 07:29 | 40.99979 | 15.82410 | 38236 ft | 408 kts | 284° |
| 2026-05-01 07:30 | 41.01204 | 15.75113 | 38234 ft | 409 kts | 284° |
| 2026-05-01 07:30 | 41.02435 | 15.67746 | 38244 ft | 409 kts | 284° |
| 2026-05-01 07:31 | 41.03662 | 15.60397 | 38244 ft | 409 kts | 284° |
| 2026-05-01 07:32 | 41.06708 | 15.42023 | 38247 ft | 409 kts | 284° |
| 2026-05-01 07:33 | 41.08525 | 15.30965 | 38239 ft | 409 kts | 284° |
| 2026-05-01 07:33 | 41.10330 | 15.19914 | 38241 ft | 409 kts | 284° |
| 2026-05-01 07:34 | 41.12132 | 15.08908 | 38232 ft | 409 kts | 284° |
| 2026-05-01 07:35 | 41.13348 | 15.01510 | 38234 ft | 409 kts | 284° |
| 2026-05-01 07:35 | 41.14552 | 14.94137 | 38232 ft | 409 kts | 284° |
| 2026-05-01 07:36 | 41.15743 | 14.86810 | 38230 ft | 410 kts | 284° |
| 2026-05-01 07:36 | 41.16912 | 14.79397 | 38230 ft | 410 kts | 284° |
| 2026-05-01 07:37 | 41.18635 | 14.68258 | 38224 ft | 411 kts | 284° |
| 2026-05-01 07:37 | 41.19787 | 14.60858 | 38222 ft | 412 kts | 284° |
| 2026-05-01 07:38 | 41.20967 | 14.53399 | 38227 ft | 412 kts | 284° |
| 2026-05-01 07:39 | 41.22724 | 14.42212 | 38219 ft | 413 kts | 284° |
| 2026-05-01 07:39 | 41.24468 | 14.31013 | 38168 ft | 412 kts | 284° |
| 2026-05-01 07:40 | 41.25044 | 14.27290 | 37870 ft | 410 kts | 284° |
| 2026-05-01 07:40 | 41.25617 | 14.23581 | 37335 ft | 408 kts | 284° |
| 2026-05-01 07:40 | 41.26187 | 14.19884 | 36736 ft | 407 kts | 284° |
| 2026-05-01 07:40 | 41.26755 | 14.16197 | 36124 ft | 406 kts | 284° |
| 2026-05-01 07:41 | 41.27311 | 14.12571 | 35518 ft | 405 kts | 284° |
| 2026-05-01 07:41 | 41.27874 | 14.08900 | 34904 ft | 403 kts | 284° |
| 2026-05-01 07:41 | 41.29017 | 14.01604 | 33595 ft | 400 kts | 287° |
| 2026-05-01 07:42 | 41.29868 | 13.98103 | 32897 ft | 396 kts | 294° |
| 2026-05-01 07:42 | 41.31021 | 13.94784 | 32186 ft | 394 kts | 300° |
| 2026-05-01 07:42 | 41.32427 | 13.91723 | 31505 ft | 392 kts | 305° |
| 2026-05-01 07:42 | 41.33984 | 13.88739 | 30819 ft | 391 kts | 305° |
| 2026-05-01 07:43 | 41.35521 | 13.85762 | 30224 ft | 387 kts | 304° |
| 2026-05-01 07:43 | 41.37034 | 13.82817 | 29510 ft | 384 kts | 304° |
| 2026-05-01 07:43 | 41.40027 | 13.76980 | 28075 ft | 379 kts | 305° |
| 2026-05-01 07:44 | 41.42930 | 13.71213 | 26726 ft | 376 kts | 302° |
| 2026-05-01 07:44 | 41.44933 | 13.64794 | 25409 ft | 377 kts | 288° |
| 2026-05-01 07:45 | 41.45452 | 13.61361 | 24770 ft | 379 kts | 283° |
| 2026-05-01 07:45 | 41.45882 | 13.57896 | 24148 ft | 378 kts | 284° |
| 2026-05-01 07:45 | 41.46322 | 13.54443 | 23496 ft | 376 kts | 284° |
| 2026-05-01 07:45 | 41.46761 | 13.51008 | 22835 ft | 374 kts | 284° |
| 2026-05-01 07:46 | 41.47193 | 13.47623 | 22203 ft | 371 kts | 284° |
| 2026-05-01 07:46 | 41.47623 | 13.44232 | 21570 ft | 369 kts | 284° |
| 2026-05-01 07:46 | 41.48464 | 13.37554 | 20380 ft | 365 kts | 284° |
| 2026-05-01 07:47 | 41.48880 | 13.34227 | 19794 ft | 362 kts | 284° |
| 2026-05-01 07:47 | 41.49294 | 13.30916 | 19190 ft | 361 kts | 284° |
| 2026-05-01 07:47 | 41.49704 | 13.27619 | 18622 ft | 360 kts | 284° |
| 2026-05-01 07:47 | 41.50114 | 13.24326 | 18003 ft | 358 kts | 284° |
| 2026-05-01 07:48 | 41.50921 | 13.17822 | 16807 ft | 353 kts | 284° |
| 2026-05-01 07:48 | 41.51317 | 13.14619 | 16235 ft | 351 kts | 284° |
| 2026-05-01 07:48 | 41.51713 | 13.11400 | 15693 ft | 349 kts | 284° |
| 2026-05-01 07:49 | 41.52105 | 13.08213 | 15138 ft | 347 kts | 284° |
| 2026-05-01 07:49 | 41.52879 | 13.01905 | 14302 ft | 337 kts | 283° |
| 2026-05-01 07:49 | 41.53245 | 12.98883 | 14165 ft | 323 kts | 284° |
| 2026-05-01 07:50 | 41.53591 | 12.96013 | 14051 ft | 310 kts | 284° |
| 2026-05-01 07:50 | 41.54442 | 12.90644 | 13816 ft | 280 kts | 295° |
| 2026-05-01 07:50 | 41.55158 | 12.88294 | 13686 ft | 268 kts | 297° |
| 2026-05-01 07:51 | 41.55860 | 12.86006 | 13360 ft | 264 kts | 297° |
| 2026-05-01 07:51 | 41.56550 | 12.83737 | 12961 ft | 264 kts | 297° |
| 2026-05-01 07:51 | 41.57237 | 12.81465 | 12563 ft | 263 kts | 297° |
| 2026-05-01 07:52 | 41.58589 | 12.76980 | 11836 ft | 261 kts | 296° |
| 2026-05-01 07:52 | 41.59252 | 12.74763 | 11685 ft | 251 kts | 296° |
| 2026-05-01 07:52 | 41.59860 | 12.72727 | 11577 ft | 241 kts | 296° |
| 2026-05-01 07:53 | 41.61099 | 12.68603 | 10946 ft | 238 kts | 297° |
| 2026-05-01 07:53 | 41.61717 | 12.66549 | 10623 ft | 238 kts | 296° |
| 2026-05-01 07:53 | 41.62332 | 12.64502 | 10310 ft | 237 kts | 296° |
| 2026-05-01 07:53 | 41.62942 | 12.62465 | 9996 ft | 236 kts | 296° |
| 2026-05-01 07:54 | 41.64157 | 12.58399 | 9350 ft | 234 kts | 296° |
| 2026-05-01 07:55 | 41.65961 | 12.52357 | 8382 ft | 231 kts | 295° |
| 2026-05-01 07:55 | 41.66787 | 12.48246 | 7702 ft | 238 kts | 265° |
| 2026-05-01 07:56 | 41.63138 | 12.44514 | 6734 ft | 245 kts | 173° |
| 2026-05-01 07:56 | 41.60302 | 12.45352 | 6207 ft | 243 kts | 166° |
| 2026-05-01 07:57 | 41.58660 | 12.45823 | 5946 ft | 240 kts | 169° |
| 2026-05-01 07:57 | 41.55603 | 12.44785 | 5300 ft | 231 kts | 229° |
| 2026-05-01 07:58 | 41.54964 | 12.40950 | 4672 ft | 217 kts | 293° |
| 2026-05-01 07:58 | 41.56927 | 12.38040 | 4082 ft | 212 kts | 330° |
| 2026-05-01 07:59 | 41.59635 | 12.36572 | 3898 ft | 215 kts | 342° |
| 2026-05-01 07:59 | 41.62351 | 12.35442 | 3717 ft | 193 kts | 342° |
| 2026-05-01 08:00 | 41.67135 | 12.33445 | 2922 ft | 174 kts | 343° |
| 2026-05-01 08:01 | 41.70479 | 12.32050 | 2255 ft | 165 kts | 345° |
| 2026-05-01 08:01 | 41.71582 | 12.31589 | 2029 ft | 162 kts | 346° |
| 2026-05-01 08:01 | 41.72634 | 12.31150 | 1798 ft | 156 kts | 346° |
| 2026-05-01 08:02 | 41.74693 | 12.30293 | 1715 ft | 162 kts | 346° |
| 2026-05-01 08:02 | 41.75826 | 12.29834 | 1506 ft | 176 kts | 345° |
| 2026-05-01 08:03 | 41.77923 | 12.28930 | 870 ft | 145 kts | 347° |
| 2026-05-01 08:03 | 41.78871 | 12.28527 | 615 ft | 141 kts | 346° |
| 2026-05-01 08:03 | 41.80869 | 12.27688 | 177 ft | 159 kts | 346° |
| 2026-05-01 08:04 | 41.82612 | 12.26990 | 13 ft | 92 kts | 342° |
| 2026-05-01 08:04 | 41.83362 | 12.26664 | 12 ft | 37 kts | 342° |
| 2026-05-01 08:05 | 41.83740 | 12.26445 | 16 ft | 29 kts | 318° |
| 2026-05-01 08:05 | 41.83839 | 12.26305 | 15 ft | 19 kts | 313° |
| 2026-05-01 08:05 | 41.83906 | 12.26183 | 16 ft | 8 kts | 258° |
| 2026-05-01 08:06 | 41.83726 | 12.26192 | 18 ft | 20 kts | 162° |
| 2026-05-01 08:06 | 41.83478 | 12.26295 | 16 ft | 25 kts | 163° |
| 2026-05-01 08:07 | 41.83041 | 12.26358 | 9 ft | 29 kts | 188° |
| 2026-05-01 08:07 | 41.82630 | 12.26515 | 10 ft | 32 kts | 163° |
| 2026-05-01 08:08 | 41.82432 | 12.26597 | 9 ft | 24 kts | 160° |